Time;durP1;ratioP1;P1;durP2;ratioP2;P2;SDS_P1;SDS_P2;PMS_P1;PMS_P2;Temp;Humidity;BMP_temperature;BMP_pressure;BME280_temperature;BME280_humidity;BME280_pressure;Samples;Min_cycle;Max_cycle;Signal;HPM_P1;HPM_P2
2021/11/02 05:10:10;;;;;;;1.50;1.30;;;8.80;99.90;;;;;;5003209;28;20453;-73
2021/11/02 05:56:35;;;;;;;2.20;1.60;;;8.10;99.90;;;;;;4977528;28;20415;-75
2021/11/02 05:59:18;;;;;;;1.90;1.73;;;8.10;99.90;;;;;;4975707;28;20459;-74
2021/11/02 06:01:55;;;;;;;2.00;1.67;;;8.10;99.90;;;;;;4975760;28;21056;-74
2021/11/02 06:04:53;;;;;;;1.70;1.60;;;8.10;99.90;;;;;;4975901;28;20937;-75
2021/11/02 06:07:45;;;;;;;2.10;1.90;;;8.10;99.90;;;;;;4975839;28;20488;-70
2021/11/02 06:10:43;;;;;;;3.27;1.80;;;8.10;99.90;;;;;;4975636;28;20471;-74
2021/11/02 06:27:47;;;;;;;4.00;2.00;;;8.30;99.90;;;;;;4896920;29;21069;-74
2021/11/02 06:30:16;;;;;;;2.93;1.73;;;8.30;99.90;;;;;;4897107;29;20819;-74
2021/11/02 06:32:48;;;;;;;2.43;1.80;;;8.20;99.90;;;;;;4937070;28;20457;-75
2021/11/02 06:35:24;;;;;;;2.53;2.13;;;8.10;99.90;;;;;;4975478;28;20446;-75
2021/11/02 06:38:03;;;;;;;3.90;2.20;;;8.10;99.90;;;;;;4975736;28;20439;-75
2021/11/02 06:49:08;;;;;;;2.30;1.90;;;8.20;99.90;;;;;;4977616;28;21088;-74
2021/11/02 06:51:54;;;;;;;3.00;2.23;;;8.20;99.90;;;;;;4978746;28;20470;-74
2021/11/02 06:54:54;;;;;;;2.13;1.93;;;8.20;99.90;;;;;;4976343;28;20877;-75
2021/11/02 07:00:30;;;;;;;2.40;2.20;;;8.40;99.90;;;;;;4975985;28;20452;-74
2021/11/02 07:17:16;;;;;;;2.23;2.00;;;9.40;99.90;;;;;;4976077;28;20490;-74
2021/11/02 07:19:51;;;;;;;1.63;1.53;;;10.20;99.90;;;;;;4976033;28;20800;-75
2021/11/02 07:22:30;;;;;;;2.33;1.30;;;11.60;99.90;;;;;;4985830;28;20526;-74
2021/11/02 07:25:08;;;;;;;2.80;1.23;;;12.90;99.90;;;;;;4986888;28;20503;-73
2021/11/02 07:28:00;;;;;;;3.20;2.10;;;14.30;99.90;;;;;;4987621;28;20491;-74
2021/11/02 08:46:00;;;;;;;3.93;2.83;;;18.90;95.80;;;;;;4977562;28;20441;-74
2021/11/02 08:48:28;;;;;;;3.50;2.00;;;18.60;96.20;;;;;;4981774;28;20468;-74
2021/11/02 08:50:59;;;;;;;3.73;2.37;;;17.80;96.80;;;;;;4982767;28;20545;-73
2021/11/02 08:53:28;;;;;;;3.43;2.17;;;16.90;98.70;;;;;;4979593;28;20512;-73
2021/11/02 08:55:55;;;;;;;6.53;3.20;;;16.00;99.90;;;;;;4977653;28;20603;-74
2021/11/02 08:58:26;;;;;;;3.70;3.10;;;15.20;99.90;;;;;;4977372;28;20456;-74
2021/11/02 09:00:55;;;;;;;5.57;3.03;;;14.50;99.90;;;;;;4976915;28;20491;-74
2021/11/02 09:03:23;;;;;;;2.93;2.40;;;13.90;99.90;;;;;;4977148;28;20464;-74
2021/11/02 09:05:54;;;;;;;2.60;2.10;;;13.30;99.90;;;;;;4976857;28;20456;-74
2021/11/02 09:08:22;;;;;;;2.57;1.70;;;13.00;99.90;;;;;;4977307;28;20474;-75
2021/11/02 09:10:50;;;;;;;2.23;2.03;;;12.90;99.90;;;;;;4977482;28;20476;-75
2021/11/02 09:13:17;;;;;;;4.00;1.83;;;12.80;99.90;;;;;;4977265;28;20447;-74
2021/11/02 09:15:47;;;;;;;5.90;2.60;;;12.70;99.90;;;;;;4977094;28;20456;-74
2021/11/02 09:18:14;;;;;;;3.70;2.60;;;12.60;99.90;;;;;;4976564;28;20947;-74
2021/11/02 09:20:41;;;;;;;3.67;2.30;;;12.30;99.90;;;;;;4976641;28;20483;-74
2021/11/02 09:23:09;;;;;;;2.90;2.20;;;12.10;99.90;;;;;;4976431;28;20457;-74
2021/11/02 09:25:37;;;;;;;5.00;2.27;;;11.80;99.90;;;;;;4977097;28;20454;-75
2021/11/02 09:28:05;;;;;;;2.90;2.27;;;11.70;99.90;;;;;;4976739;28;20480;-74
2021/11/02 09:30:33;;;;;;;2.13;1.87;;;11.60;99.90;;;;;;4977053;28;20483;-74
2021/11/02 09:32:59;;;;;;;3.60;1.90;;;11.40;99.90;;;;;;4986847;28;20452;-74
2021/11/02 09:35:28;;;;;;;4.00;3.27;;;11.30;99.90;;;;;;4991054;28;20523;-74
2021/11/02 09:38:12;;;;;;;3.27;2.50;;;11.10;99.90;;;;;;4977338;28;20451;-74
2021/11/02 09:41:18;;;;;;;7.47;3.83;;;10.90;99.90;;;;;;4976418;28;21010;-74
2021/11/02 09:44:28;;;;;;;3.67;3.00;;;10.70;99.90;;;;;;4971171;28;20459;-74
2021/11/02 09:47:26;;;;;;;5.33;3.23;;;10.30;99.90;;;;;;4962841;28;20467;-74
2021/11/02 09:50:13;;;;;;;4.73;2.40;;;10.10;99.90;;;;;;4996741;28;20436;-74
2021/11/02 09:53:20;;;;;;;2.90;1.90;;;9.90;99.90;;;;;;4981496;28;20439;-74
2021/11/02 09:56:02;;;;;;;2.40;2.20;;;9.80;99.90;;;;;;4990819;28;20455;-74
2021/11/02 09:59:04;;;;;;;5.20;1.37;;;9.80;99.90;;;;;;4986958;28;20789;-74
2021/11/02 10:01:33;;;;;;;3.23;1.20;;;9.70;99.90;;;;;;4971860;28;20483;-74
2021/11/02 10:04:42;;;;;;;1.40;1.30;;;9.60;99.90;;;;;;4994373;28;20454;-75
2021/11/02 10:07:34;;;;;;;2.23;1.47;;;9.50;99.90;;;;;;4984333;28;20455;-74
2021/11/02 10:10:08;;;;;;;1.80;1.70;;;9.60;99.90;;;;;;4975861;28;20449;-75
2021/11/02 10:12:43;;;;;;;2.67;1.50;;;9.50;99.90;;;;;;4976194;28;20486;-75
2021/11/02 10:15:34;;;;;;;2.17;1.30;;;9.50;99.90;;;;;;4976220;28;20447;-73
2021/11/02 10:18:20;;;;;;;3.63;1.50;;;9.50;99.90;;;;;;4975483;28;20457;-74
2021/11/02 10:21:29;;;;;;;1.77;1.50;;;9.60;99.90;;;;;;4987434;28;20487;-73
2021/11/02 10:24:35;;;;;;;4.10;1.70;;;9.60;99.90;;;;;;4986836;28;20457;-73
2021/11/02 10:27:16;;;;;;;1.60;1.50;;;9.70;99.90;;;;;;4984814;28;20482;-73
2021/11/02 10:30:04;;;;;;;2.00;1.67;;;9.70;99.90;;;;;;4986331;28;20472;-73
2021/11/02 10:32:35;;;;;;;2.20;2.10;;;9.70;99.90;;;;;;4975163;28;21001;-73
2021/11/02 10:35:05;;;;;;;4.97;1.80;;;9.70;99.90;;;;;;4977749;28;20443;-73
2021/11/02 10:37:39;;;;;;;4.20;1.80;;;9.70;99.90;;;;;;4977478;28;20439;-73
2021/11/02 10:40:21;;;;;;;4.63;1.90;;;9.70;99.90;;;;;;4979889;28;20898;-73
2021/11/02 10:43:04;;;;;;;1.90;1.60;;;9.60;99.90;;;;;;4977823;28;20442;-73
2021/11/02 10:45:32;;;;;;;3.53;1.30;;;9.70;99.90;;;;;;4979597;28;20463;-72
2021/11/02 10:48:05;;;;;;;3.13;1.60;;;9.70;99.90;;;;;;4979863;28;20846;-72
2021/11/02 10:50:36;;;;;;;2.37;1.60;;;9.70;99.90;;;;;;4979286;28;20472;-73
2021/11/02 10:53:05;;;;;;;5.67;1.80;;;9.70;99.90;;;;;;4977162;28;20831;-73
2021/11/02 10:55:43;;;;;;;2.80;2.10;;;9.70;99.90;;;;;;4975793;28;20459;-72
2021/11/02 10:58:36;;;;;;;2.60;2.13;;;9.70;99.90;;;;;;4975843;28;20446;-72
2021/11/02 11:01:05;;;;;;;3.70;1.50;;;9.70;99.90;;;;;;4973020;28;20529;-73
2021/11/02 11:03:35;;;;;;;2.07;1.27;;;9.60;99.90;;;;;;4976138;28;20455;-72
2021/11/02 11:06:04;;;;;;;3.20;1.73;;;9.60;99.90;;;;;;4975709;28;20465;-73
2021/11/02 11:08:34;;;;;;;2.80;1.73;;;9.50;99.90;;;;;;4976519;28;20843;-73
2021/11/02 11:11:03;;;;;;;2.20;1.57;;;9.60;99.90;;;;;;4978838;28;21000;-73
2021/11/02 11:13:31;;;;;;;2.47;1.50;;;9.70;99.90;;;;;;4979635;28;20466;-73
2021/11/02 11:16:09;;;;;;;1.73;1.60;;;9.70;99.90;;;;;;4979260;28;20462;-72
2021/11/02 11:18:56;;;;;;;1.87;1.77;;;9.70;99.90;;;;;;4980163;28;20434;-73
2021/11/02 11:21:27;;;;;;;4.77;1.73;;;9.60;99.90;;;;;;4988499;28;20476;-73
2021/11/02 11:24:06;;;;;;;5.33;1.60;;;9.60;99.90;;;;;;4988999;28;20439;-73
2021/11/02 11:26:33;;;;;;;4.00;2.33;;;9.60;99.90;;;;;;4988414;28;20545;-73
2021/11/02 11:29:03;;;;;;;1.80;1.70;;;9.60;99.90;;;;;;4987491;28;20486;-73
2021/11/02 11:31:30;;;;;;;3.50;2.33;;;9.60;99.90;;;;;;4988671;28;20484;-73
2021/11/02 11:34:02;;;;;;;3.00;1.87;;;9.70;99.90;;;;;;4989983;28;20455;-73
2021/11/02 11:36:33;;;;;;;3.80;1.80;;;9.70;99.90;;;;;;4989824;28;20440;-73
2021/11/02 11:39:03;;;;;;;2.63;2.37;;;9.70;99.90;;;;;;4986116;28;20448;-73
2021/11/02 11:41:34;;;;;;;4.23;2.03;;;9.80;99.90;;;;;;4986799;28;20474;-74
2021/11/02 11:44:04;;;;;;;2.17;1.73;;;9.80;99.90;;;;;;4987070;28;20439;-74
2021/11/02 11:46:33;;;;;;;2.43;1.83;;;9.90;99.90;;;;;;4999745;28;20462;-74
2021/11/02 11:49:01;;;;;;;3.73;2.43;;;10.00;99.90;;;;;;4997537;28;20475;-74
2021/11/02 11:51:32;;;;;;;2.93;2.07;;;9.90;99.90;;;;;;5000148;28;20455;-74
2021/11/02 11:54:02;;;;;;;2.80;1.90;;;10.10;99.90;;;;;;4988830;28;20527;-75
2021/11/02 11:56:33;;;;;;;4.83;1.80;;;10.10;99.90;;;;;;4984805;28;20459;-73
2021/11/02 11:59:01;;;;;;;5.27;2.20;;;10.10;99.90;;;;;;4987381;28;20435;-75
2021/11/02 12:01:35;;;;;;;3.63;1.90;;;10.30;99.90;;;;;;4983316;28;20526;-75
2021/11/02 12:04:10;;;;;;;1.90;1.67;;;10.40;99.90;;;;;;4982949;28;20443;-74
2021/11/02 12:06:46;;;;;;;1.87;1.77;;;10.40;99.90;;;;;;4981079;28;20435;-74
2021/11/02 12:09:18;;;;;;;3.00;1.80;;;10.60;99.90;;;;;;4980696;28;20467;-74
2021/11/02 12:11:45;;;;;;;2.40;1.67;;;10.70;99.90;;;;;;4979179;28;20482;-74
2021/11/02 12:14:18;;;;;;;1.70;1.33;;;10.90;99.90;;;;;;4980480;28;20467;-74
2021/11/02 12:16:47;;;;;;;2.17;1.50;;;11.10;99.90;;;;;;4979233;28;20448;-74
2021/11/02 12:19:22;;;;;;;1.73;1.63;;;11.20;99.90;;;;;;4978934;28;20946;-74
2021/11/02 12:22:05;;;;;;;1.57;1.47;;;11.20;99.90;;;;;;4979823;28;20513;-75
2021/11/02 12:24:33;;;;;;;1.60;1.50;;;11.40;99.90;;;;;;4983688;28;20446;-75
2021/11/02 12:27:13;;;;;;;1.77;1.33;;;11.40;99.90;;;;;;4979389;28;20467;-76
2021/11/02 12:29:40;;;;;;;2.77;1.60;;;11.50;99.90;;;;;;4995402;28;20456;-74
2021/11/02 12:32:11;;;;;;;1.97;1.47;;;11.60;99.90;;;;;;4988271;28;20795;-71
2021/11/02 12:34:50;;;;;;;1.00;1.00;;;11.60;99.90;;;;;;4979062;28;20791;-71
2021/11/02 12:37:19;;;;;;;1.57;1.47;;;11.40;99.90;;;;;;4977418;28;20458;-71
2021/11/02 12:39:47;;;;;;;1.20;1.20;;;11.40;99.90;;;;;;4978522;28;20942;-70
2021/11/02 12:42:20;;;;;;;1.60;0.97;;;11.40;99.90;;;;;;4978388;28;20483;-71
2021/11/02 12:44:49;;;;;;;2.00;0.70;;;11.20;99.90;;;;;;4978628;28;20466;-71
2021/11/02 12:47:21;;;;;;;0.83;0.83;;;11.10;99.90;;;;;;4978595;28;20455;-70
2021/11/02 12:49:53;;;;;;;0.60;0.60;;;11.00;99.90;;;;;;4977924;28;20863;-71
2021/11/02 12:52:24;;;;;;;0.60;0.60;;;11.00;99.90;;;;;;4978822;28;20475;-71
2021/11/02 12:54:59;;;;;;;0.97;0.60;;;11.00;99.90;;;;;;4978629;28;20454;-71
2021/11/02 12:57:34;;;;;;;0.50;0.50;;;11.10;99.90;;;;;;4979571;28;20471;-71
2021/11/02 13:00:02;;;;;;;1.00;0.90;;;11.10;99.90;;;;;;4983996;28;20435;-71
2021/11/02 13:02:33;;;;;;;0.87;0.87;;;11.10;99.90;;;;;;4983105;28;20479;-70
2021/11/02 13:05:03;;;;;;;0.90;0.50;;;11.00;99.90;;;;;;4983160;28;20471;-71
2021/11/02 13:07:37;;;;;;;0.50;0.50;;;11.00;99.90;;;;;;4986251;28;20439;-72
2021/11/02 13:10:11;;;;;;;1.23;0.80;;;11.00;99.90;;;;;;4996649;28;20478;-71
2021/11/02 13:12:40;;;;;;;0.63;0.63;;;11.10;99.90;;;;;;4979544;28;20870;-70
2021/11/02 13:15:11;;;;;;;0.60;0.60;;;11.30;99.90;;;;;;4977867;28;20457;-71
2021/11/02 13:17:43;;;;;;;0.50;0.50;;;11.40;99.90;;;;;;4978053;28;20448;-71
2021/11/02 13:20:13;;;;;;;0.70;0.70;;;11.60;99.90;;;;;;4977337;28;20436;-71
2021/11/02 13:22:53;;;;;;;0.60;0.60;;;11.80;99.90;;;;;;4977497;28;20463;-71
2021/11/02 13:25:24;;;;;;;0.47;0.47;;;12.00;99.90;;;;;;4977752;28;20516;-71
2021/11/02 13:27:54;;;;;;;0.30;0.30;;;12.10;99.90;;;;;;4977496;28;20537;-70
2021/11/02 13:30:29;;;;;;;0.50;0.50;;;12.20;99.90;;;;;;4977601;28;20511;-72
2021/11/02 13:33:03;;;;;;;0.60;0.60;;;12.40;99.90;;;;;;4976512;28;20457;-71
2021/11/02 13:35:51;;;;;;;0.80;0.60;;;12.50;99.90;;;;;;4977180;28;20447;-71
2021/11/02 13:38:33;;;;;;;0.87;0.87;;;12.50;99.90;;;;;;4977330;28;20440;-71
2021/11/02 13:41:09;;;;;;;0.80;0.80;;;12.40;99.90;;;;;;4977283;28;20511;-71
2021/11/02 13:43:37;;;;;;;0.93;0.93;;;12.40;99.90;;;;;;4977188;28;20447;-71
2021/11/02 13:46:06;;;;;;;0.60;0.60;;;12.40;99.90;;;;;;4976833;28;20464;-71
2021/11/02 13:48:34;;;;;;;0.50;0.50;;;12.40;99.90;;;;;;4976827;28;20457;-71
2021/11/02 13:51:04;;;;;;;0.90;0.90;;;12.40;99.90;;;;;;4976962;28;20471;-71
2021/11/02 13:53:34;;;;;;;0.53;0.53;;;12.30;99.90;;;;;;4977276;28;20821;-71
2021/11/02 13:56:02;;;;;;;0.70;0.70;;;12.20;99.90;;;;;;4977108;28;20795;-71
2021/11/02 13:58:29;;;;;;;0.60;0.60;;;12.20;99.90;;;;;;4977211;28;20518;-71
2021/11/02 14:00:56;;;;;;;0.60;0.60;;;12.20;99.90;;;;;;4976762;28;20487;-72
2021/11/02 14:03:27;;;;;;;0.47;0.47;;;12.00;99.90;;;;;;4976647;28;20463;-71
2021/11/02 14:05:56;;;;;;;0.60;0.60;;;12.00;99.90;;;;;;4977018;28;20914;-71
2021/11/02 14:08:25;;;;;;;0.60;0.60;;;11.90;99.90;;;;;;4976975;28;20460;-71
2021/11/02 14:10:55;;;;;;;0.50;0.50;;;11.80;99.90;;;;;;4976897;28;21009;-70
2021/11/02 14:13:40;;;;;;;0.50;0.50;;;11.70;99.90;;;;;;4976638;28;20508;-71
2021/11/02 14:16:07;;;;;;;0.50;0.50;;;11.60;99.90;;;;;;4976731;28;20451;-71
2021/11/02 14:18:35;;;;;;;0.40;0.40;;;11.70;99.90;;;;;;4976757;28;20456;-72
2021/11/02 14:21:02;;;;;;;0.47;0.47;;;11.90;99.90;;;;;;4976758;28;20503;-71
2021/11/02 14:23:39;;;;;;;0.70;0.70;;;12.00;99.90;;;;;;4976603;28;20523;-70
2021/11/02 14:26:23;;;;;;;0.40;0.40;;;12.20;99.90;;;;;;4977020;28;20445;-70
2021/11/02 14:28:53;;;;;;;0.87;0.60;;;12.30;99.90;;;;;;4976819;28;20476;-71
2021/11/02 14:31:47;;;;;;;1.70;0.80;;;12.40;99.90;;;;;;4976292;28;20474;-71
2021/11/02 14:34:46;;;;;;;0.50;0.50;;;12.40;99.90;;;;;;4942186;28;20459;-70
2021/11/02 14:37:15;;;;;;;0.50;0.50;;;12.20;99.90;;;;;;4976627;28;20488;-70
2021/11/02 14:39:59;;;;;;;0.80;0.80;;;12.10;99.90;;;;;;4976583;28;20813;-70
2021/11/02 14:42:43;;;;;;;0.70;0.60;;;12.10;99.90;;;;;;4977078;28;20473;-71
2021/11/02 14:45:12;;;;;;;0.63;0.63;;;12.10;99.90;;;;;;4981824;28;20446;-70
2021/11/02 14:47:39;;;;;;;0.40;0.40;;;12.00;99.90;;;;;;4996896;28;20447;-70
2021/11/02 14:50:34;;;;;;;0.77;0.60;;;12.00;99.90;;;;;;5002447;28;20550;-70
2021/11/02 14:53:19;;;;;;;1.13;0.50;;;12.00;99.90;;;;;;5002824;28;20436;-70
2021/11/02 14:55:58;;;;;;;0.47;0.47;;;11.90;99.90;;;;;;5002523;28;20502;-71
2021/11/02 14:58:44;;;;;;;2.77;0.83;;;11.90;99.90;;;;;;5002602;28;20431;-71
2021/11/02 15:01:13;;;;;;;1.00;0.57;;;11.70;99.90;;;;;;5002197;28;20459;-72
2021/11/02 15:03:41;;;;;;;0.70;0.67;;;11.70;99.90;;;;;;5002635;28;20440;-71
2021/11/02 15:06:11;;;;;;;0.50;0.50;;;11.70;99.90;;;;;;5002673;28;20435;-71
2021/11/02 15:08:40;;;;;;;0.50;0.50;;;11.70;99.90;;;;;;5000267;28;20448;-71
2021/11/02 15:11:12;;;;;;;0.50;0.50;;;11.60;99.90;;;;;;4995669;28;20872;-71
2021/11/02 15:13:39;;;;;;;0.50;0.50;;;11.60;99.90;;;;;;4981691;28;20439;-71
2021/11/02 15:16:07;;;;;;;0.50;0.50;;;11.50;99.90;;;;;;4980764;28;20456;-71
2021/11/02 15:18:42;;;;;;;0.70;0.70;;;11.50;99.90;;;;;;4980928;28;20452;-71
2021/11/02 15:21:09;;;;;;;0.57;0.57;;;11.50;99.90;;;;;;4980368;28;20489;-71
2021/11/02 15:23:41;;;;;;;0.80;0.50;;;11.40;99.90;;;;;;4981740;28;20456;-72
2021/11/02 15:26:10;;;;;;;0.53;0.53;;;11.30;99.90;;;;;;4982367;28;20536;-71
2021/11/02 15:28:45;;;;;;;0.47;0.47;;;11.30;99.90;;;;;;4982106;28;20463;-71
2021/11/02 15:31:13;;;;;;;2.30;0.60;;;11.30;99.90;;;;;;4980884;28;20477;-71
2021/11/02 15:33:42;;;;;;;1.93;0.67;;;11.30;99.90;;;;;;4981530;28;20451;-70
2021/11/02 15:36:19;;;;;;;4.63;0.60;;;11.20;99.90;;;;;;4998265;28;20470;-71
2021/11/02 15:38:57;;;;;;;0.63;0.63;;;11.10;99.90;;;;;;4981763;28;20431;-72
2021/11/02 15:41:27;;;;;;;0.63;0.63;;;11.00;99.90;;;;;;4979680;28;20837;-70
2021/11/02 15:43:56;;;;;;;1.23;0.83;;;10.80;99.90;;;;;;4980037;28;20479;-70
2021/11/02 15:46:34;;;;;;;0.73;0.73;;;10.80;99.90;;;;;;4979833;28;20501;-70
2021/11/02 15:49:04;;;;;;;0.60;0.60;;;10.70;99.90;;;;;;4980122;28;20435;-70
2021/11/02 15:51:35;;;;;;;0.70;0.57;;;10.70;99.90;;;;;;4980662;28;20918;-71
2021/11/02 15:54:10;;;;;;;0.67;0.67;;;10.60;99.90;;;;;;4980478;28;20445;-71
2021/11/02 15:56:40;;;;;;;0.70;0.60;;;10.50;99.90;;;;;;4983336;28;20495;-71
2021/11/02 15:59:08;;;;;;;1.23;0.50;;;10.40;99.90;;;;;;4994851;28;20446;-72
2021/11/02 16:01:36;;;;;;;1.37;0.70;;;10.40;99.90;;;;;;4986581;28;20502;-71
2021/11/02 16:04:08;;;;;;;1.27;0.60;;;10.30;99.90;;;;;;4994823;28;20460;-69
2021/11/02 16:06:35;;;;;;;0.87;0.80;;;10.20;99.90;;;;;;4992512;28;20447;-69
2021/11/02 16:09:04;;;;;;;1.67;0.97;;;10.30;99.90;;;;;;4979673;28;20826;-70
2021/11/02 16:11:31;;;;;;;1.90;0.93;;;10.20;99.90;;;;;;4979802;28;20479;-69
2021/11/02 16:14:07;;;;;;;0.97;0.40;;;10.20;99.90;;;;;;4979247;28;20934;-70
2021/11/02 16:16:34;;;;;;;0.63;0.63;;;10.20;99.90;;;;;;4979042;28;20451;-69
2021/11/02 16:19:01;;;;;;;0.50;0.50;;;10.10;99.90;;;;;;4979171;28;20448;-69
2021/11/02 16:21:32;;;;;;;0.83;0.70;;;10.10;99.90;;;;;;4979630;28;20475;-69
2021/11/02 16:24:08;;;;;;;0.87;0.50;;;10.10;99.90;;;;;;4978971;28;20440;-69
2021/11/02 16:26:39;;;;;;;0.50;0.50;;;10.10;99.90;;;;;;4989717;28;20464;-68
2021/11/02 16:29:13;;;;;;;0.60;0.60;;;10.00;99.90;;;;;;4999441;28;20432;-69
2021/11/02 16:31:41;;;;;;;0.60;0.60;;;10.00;99.90;;;;;;4997129;28;20499;-69
2021/11/02 16:34:19;;;;;;;1.13;0.73;;;10.00;99.90;;;;;;4998036;28;20450;-69
2021/11/02 16:36:48;;;;;;;0.73;0.60;;;10.00;99.90;;;;;;4997012;28;20488;-68
2021/11/02 16:39:21;;;;;;;2.50;0.77;;;10.00;99.90;;;;;;4998767;28;20518;-70
2021/11/02 16:41:49;;;;;;;2.07;0.60;;;10.00;99.90;;;;;;4998109;28;20484;-70
2021/11/02 16:44:25;;;;;;;1.43;1.43;;;10.00;99.90;;;;;;4996352;28;20488;-69
2021/11/02 16:47:02;;;;;;;0.93;0.93;;;10.10;99.90;;;;;;4990835;28;20467;-70
2021/11/02 16:49:29;;;;;;;1.73;1.63;;;10.20;99.90;;;;;;4991384;28;20436;-68
2021/11/02 16:51:58;;;;;;;2.50;2.30;;;10.30;99.90;;;;;;4978965;28;20561;-68
2021/11/02 16:54:27;;;;;;;2.43;1.83;;;10.30;99.90;;;;;;4992567;28;20515;-67
2021/11/02 16:57:04;;;;;;;1.07;1.07;;;10.30;99.90;;;;;;4979967;28;20460;-67
2021/11/02 17:00:01;;;;;;;1.20;1.20;;;10.30;99.90;;;;;;4979129;28;20524;-67
2021/11/02 17:02:29;;;;;;;1.20;0.80;;;10.30;99.90;;;;;;4945810;28;20484;-68
2021/11/02 17:05:10;;;;;;;1.90;1.20;;;10.10;99.90;;;;;;4979300;28;20458;-67
2021/11/02 17:07:42;;;;;;;0.90;0.90;;;10.10;99.90;;;;;;4977632;28;20447;-68
2021/11/02 17:10:18;;;;;;;1.50;1.40;;;10.00;99.90;;;;;;4983771;28;20463;-68
2021/11/02 17:12:47;;;;;;;1.40;1.30;;;10.00;99.90;;;;;;4982920;28;20466;-67
2021/11/02 17:15:19;;;;;;;1.23;0.97;;;9.90;99.90;;;;;;4985984;28;20463;-67
2021/11/02 17:17:46;;;;;;;2.00;1.30;;;9.80;99.90;;;;;;4983340;28;20823;-68
2021/11/02 17:20:15;;;;;;;0.97;0.97;;;9.70;99.90;;;;;;4980625;28;20451;-68
2021/11/02 17:22:42;;;;;;;1.70;1.60;;;9.60;99.90;;;;;;4978563;28;20472;-67
2021/11/02 17:25:10;;;;;;;3.10;2.50;;;9.60;99.90;;;;;;4978803;28;20463;-69
2021/11/02 17:27:37;;;;;;;4.20;3.80;;;9.50;99.90;;;;;;4977638;28;20464;-68
2021/11/02 17:30:05;;;;;;;6.17;5.60;;;9.50;99.90;;;;;;4981006;28;20484;-68
2021/11/02 17:32:34;;;;;;;5.83;5.33;;;9.50;99.90;;;;;;4993440;28;20478;-68
2021/11/02 17:35:01;;;;;;;5.70;5.17;;;9.50;99.90;;;;;;4986957;28;20462;-68
2021/11/02 17:37:30;;;;;;;6.27;5.67;;;9.40;99.90;;;;;;4988143;28;20587;-68
2021/11/02 17:39:59;;;;;;;5.17;4.77;;;9.40;99.90;;;;;;4982008;28;20444;-68
2021/11/02 17:42:26;;;;;;;4.17;3.87;;;9.30;99.90;;;;;;4982342;28;20861;-68
2021/11/02 17:44:53;;;;;;;3.17;2.97;;;9.20;99.90;;;;;;4977040;28;20450;-68
2021/11/02 17:47:20;;;;;;;3.17;2.97;;;9.20;99.90;;;;;;4977605;28;20455;-68
2021/11/02 17:49:50;;;;;;;2.23;2.13;;;9.20;99.90;;;;;;4977725;28;20455;-68
2021/11/02 17:52:17;;;;;;;4.07;3.77;;;9.10;99.90;;;;;;4976649;28;20471;-69
2021/11/02 17:54:44;;;;;;;3.10;2.90;;;9.10;99.90;;;;;;4976846;28;20467;-67
2021/11/02 17:57:11;;;;;;;2.83;2.63;;;9.10;99.90;;;;;;4976219;28;20955;-72
2021/11/02 17:59:40;;;;;;;2.33;2.10;;;9.10;99.90;;;;;;4976923;28;20635;-68
2021/11/02 18:02:07;;;;;;;2.43;2.33;;;9.10;99.90;;;;;;4992015;28;20486;-68
2021/11/02 18:04:36;;;;;;;2.00;1.90;;;9.00;99.90;;;;;;4984225;28;20936;-68
2021/11/02 18:07:05;;;;;;;2.30;2.10;;;9.00;99.90;;;;;;4976901;28;20851;-68
2021/11/02 18:09:35;;;;;;;3.50;3.20;;;9.00;99.90;;;;;;4976229;28;20455;-68
2021/11/02 18:12:02;;;;;;;5.83;4.60;;;9.00;99.90;;;;;;4976087;28;20538;-68
2021/11/02 18:14:29;;;;;;;5.30;4.80;;;8.90;99.90;;;;;;4976891;28;20455;-69
2021/11/02 18:16:57;;;;;;;3.20;3.00;;;8.90;99.90;;;;;;4977613;28;20455;-69
2021/11/02 18:19:25;;;;;;;2.40;2.27;;;8.90;99.90;;;;;;4977570;28;20460;-68
2021/11/02 18:21:54;;;;;;;4.50;3.33;;;8.90;99.90;;;;;;4977417;28;20475;-68
2021/11/02 18:24:22;;;;;;;5.67;4.50;;;8.80;99.90;;;;;;4981346;28;20455;-68
2021/11/02 18:26:49;;;;;;;6.57;4.80;;;8.80;99.90;;;;;;4997913;28;20456;-68
2021/11/02 18:29:19;;;;;;;4.50;3.70;;;8.80;99.90;;;;;;4980074;28;20792;-67
2021/11/02 18:31:48;;;;;;;5.13;4.40;;;8.70;99.90;;;;;;4976005;28;20569;-68
2021/11/02 18:34:15;;;;;;;3.70;3.30;;;8.80;99.90;;;;;;4976402;28;20452;-67
2021/11/02 18:36:43;;;;;;;3.40;3.10;;;8.80;99.90;;;;;;4977090;28;20458;-67
2021/11/02 18:39:10;;;;;;;4.77;4.37;;;8.90;99.90;;;;;;4988543;28;20933;-67
2021/11/02 18:41:38;;;;;;;3.20;3.00;;;8.90;99.90;;;;;;4989544;28;20451;-68
2021/11/02 18:44:05;;;;;;;2.30;2.20;;;8.90;99.90;;;;;;4981030;28;20456;-68
2021/11/02 18:46:32;;;;;;;2.50;2.30;;;9.00;99.90;;;;;;4975642;28;20459;-67
2021/11/02 18:49:00;;;;;;;2.57;2.33;;;9.10;99.90;;;;;;4975422;28;20514;-68
2021/11/02 18:51:27;;;;;;;2.70;2.57;;;9.10;99.90;;;;;;4975636;28;20482;-68
2021/11/02 18:53:53;;;;;;;2.40;2.30;;;9.20;99.90;;;;;;4975735;28;20455;-67
2021/11/02 18:56:20;;;;;;;3.10;2.90;;;9.20;99.90;;;;;;4975961;28;20459;-68
2021/11/02 18:58:48;;;;;;;3.70;3.50;;;9.20;99.90;;;;;;4975652;28;20451;-68
2021/11/02 19:01:16;;;;;;;3.23;2.77;;;9.20;99.90;;;;;;4975636;28;20602;-68
2021/11/02 19:03:43;;;;;;;3.27;2.97;;;9.10;99.90;;;;;;4980510;28;20455;-68
2021/11/02 19:06:09;;;;;;;3.30;3.07;;;9.10;99.90;;;;;;4983950;28;20535;-68
2021/11/02 19:08:36;;;;;;;2.83;2.63;;;9.10;99.90;;;;;;4982880;28;20459;-68
2021/11/02 19:11:03;;;;;;;4.90;3.07;;;9.10;99.90;;;;;;4988527;28;20514;-68
2021/11/02 19:13:30;;;;;;;2.63;2.43;;;9.10;99.90;;;;;;4976487;28;20510;-67
2021/11/02 19:15:58;;;;;;;2.60;2.00;;;9.00;99.90;;;;;;4975730;28;20463;-68
2021/11/02 19:18:25;;;;;;;2.80;2.60;;;9.00;99.90;;;;;;4975660;28;20455;-67
2021/11/02 19:20:51;;;;;;;2.83;2.37;;;8.90;99.90;;;;;;4976207;28;20475;-67
2021/11/02 19:23:18;;;;;;;2.13;2.03;;;8.80;99.90;;;;;;4975916;28;20518;-67
2021/11/02 19:25:45;;;;;;;2.30;2.20;;;8.60;99.90;;;;;;4976258;28;20446;-67
2021/11/02 19:28:13;;;;;;;3.60;3.00;;;8.60;99.90;;;;;;4975431;28;20460;-67
2021/11/02 19:30:41;;;;;;;2.60;2.40;;;8.60;99.90;;;;;;4977582;28;20494;-67
2021/11/02 19:33:09;;;;;;;2.73;2.63;;;8.60;99.90;;;;;;4978848;28;20502;-67
2021/11/02 19:35:39;;;;;;;2.37;2.27;;;8.70;99.90;;;;;;4979136;28;20449;-67
2021/11/02 19:38:06;;;;;;;3.77;2.37;;;8.60;99.90;;;;;;4978873;28;20444;-67
2021/11/02 19:40:33;;;;;;;3.50;2.37;;;8.70;99.90;;;;;;4979044;28;20525;-67
2021/11/02 19:43:00;;;;;;;2.43;2.10;;;8.70;99.90;;;;;;4978927;28;20452;-67
2021/11/02 19:45:27;;;;;;;8.30;3.70;;;8.70;99.90;;;;;;4978518;28;20449;-68
2021/11/02 19:47:54;;;;;;;3.43;2.20;;;8.70;99.90;;;;;;4978598;28;20450;-68
2021/11/02 19:50:24;;;;;;;3.03;2.73;;;8.70;99.90;;;;;;4978442;28;20522;-68
2021/11/02 19:52:54;;;;;;;2.80;1.90;;;8.70;99.90;;;;;;4978602;28;20446;-67
2021/11/02 19:55:24;;;;;;;5.30;2.30;;;8.70;99.90;;;;;;4978575;28;20436;-68
2021/11/02 19:57:51;;;;;;;2.37;2.17;;;8.70;99.90;;;;;;4978435;28;20443;-68
2021/11/02 20:00:20;;;;;;;2.13;2.03;;;8.70;99.90;;;;;;4978590;28;20448;-67
2021/11/02 20:02:47;;;;;;;2.23;2.13;;;8.60;99.90;;;;;;4978639;28;20805;-68
2021/11/02 20:05:14;;;;;;;2.30;1.80;;;8.60;99.90;;;;;;4978712;28;20512;-67
2021/11/02 20:07:46;;;;;;;2.47;2.37;;;8.60;99.90;;;;;;4979532;28;20462;-68
2021/11/02 20:10:14;;;;;;;2.13;2.03;;;8.70;99.90;;;;;;4993374;28;20439;-68
2021/11/02 20:12:51;;;;;;;2.00;1.80;;;8.70;99.90;;;;;;4979169;28;20554;-68
2021/11/02 20:15:20;;;;;;;1.93;1.83;;;8.70;99.90;;;;;;4978318;28;20436;-67
2021/11/02 20:17:48;;;;;;;1.57;1.47;;;8.70;99.90;;;;;;4978679;28;20450;-68
2021/11/02 20:20:17;;;;;;;1.70;1.57;;;8.70;99.90;;;;;;4978519;28;20459;-68
2021/11/02 20:22:45;;;;;;;1.60;1.50;;;8.70;99.90;;;;;;4978374;28;20832;-68
2021/11/02 20:25:12;;;;;;;1.60;1.30;;;8.70;99.90;;;;;;4978696;28;20818;-67
2021/11/02 20:27:39;;;;;;;2.17;2.00;;;8.80;99.90;;;;;;4978457;28;20452;-67
2021/11/02 20:30:08;;;;;;;6.90;1.53;;;8.70;99.90;;;;;;4979022;28;20557;-67
2021/11/02 20:32:36;;;;;;;1.37;1.37;;;8.70;99.90;;;;;;4978795;28;20483;-68
2021/11/02 20:35:04;;;;;;;3.67;2.17;;;8.70;99.90;;;;;;4978792;28;20456;-67
2021/11/02 20:37:35;;;;;;;2.77;1.50;;;8.70;99.90;;;;;;4980985;28;20488;-68
2021/11/02 20:40:07;;;;;;;2.33;1.70;;;8.80;99.90;;;;;;4983185;28;20440;-67
2021/11/02 20:42:41;;;;;;;1.70;1.60;;;8.80;99.90;;;;;;4997477;28;20468;-68
2021/11/02 20:45:08;;;;;;;1.70;1.40;;;8.90;99.90;;;;;;4998837;28;20431;-68
2021/11/02 20:47:38;;;;;;;2.30;1.70;;;8.90;99.90;;;;;;4996747;28;20434;-69
2021/11/02 20:50:06;;;;;;;2.60;1.50;;;8.90;99.90;;;;;;4984751;28;20436;-67
2021/11/02 20:52:33;;;;;;;3.53;1.80;;;8.90;99.90;;;;;;4977850;28;20483;-67
2021/11/02 20:55:00;;;;;;;3.23;1.50;;;8.90;99.90;;;;;;4978784;28;20459;-69
2021/11/02 20:57:28;;;;;;;1.33;1.33;;;8.90;99.90;;;;;;4979004;28;20455;-68
2021/11/02 20:59:55;;;;;;;1.47;1.40;;;8.90;99.90;;;;;;4978566;28;20911;-68
2021/11/02 21:02:25;;;;;;;2.90;1.70;;;8.90;99.90;;;;;;4988617;28;20463;-67
2021/11/02 21:04:53;;;;;;;2.13;1.47;;;8.80;99.90;;;;;;4999793;28;20478;-67
2021/11/02 21:07:25;;;;;;;1.60;1.50;;;8.80;99.90;;;;;;4999083;28;20435;-69
2021/11/02 21:09:57;;;;;;;1.47;1.20;;;8.80;99.90;;;;;;4999788;28;20817;-68